sensor_id;sensor_type;location;lat;lon;timestamp;temperature;humidity
47514;DHT22;33951;51.988;5.910;2023-06-26T04:00:21;20.60;99.90
47514;DHT22;33951;51.988;5.910;2023-06-26T04:03:09;20.60;99.90
47514;DHT22;33951;51.988;5.910;2023-06-26T04:15:23;20.50;99.90
47514;DHT22;33951;51.988;5.910;2023-06-26T04:17:49;20.60;99.90
47514;DHT22;33951;51.988;5.910;2023-06-26T04:20:17;20.60;99.90
47514;DHT22;33951;51.988;5.910;2023-06-26T04:22:42;20.80;99.90
47514;DHT22;33951;51.988;5.910;2023-06-26T04:25:08;20.80;99.90
47514;DHT22;33951;51.988;5.910;2023-06-26T04:27:34;20.70;99.90
47514;DHT22;33951;51.988;5.910;2023-06-26T04:30:00;20.80;99.90
47514;DHT22;33951;51.988;5.910;2023-06-26T04:32:29;20.80;99.90
47514;DHT22;33951;51.988;5.910;2023-06-26T04:34:54;20.80;99.90
47514;DHT22;33951;51.988;5.910;2023-06-26T04:37:20;20.70;99.90
47514;DHT22;33951;51.988;5.910;2023-06-26T04:39:46;20.70;99.90
47514;DHT22;33951;51.988;5.910;2023-06-26T04:42:11;20.70;99.90
47514;DHT22;33951;51.988;5.910;2023-06-26T04:44:38;20.70;99.90
47514;DHT22;33951;51.988;5.910;2023-06-26T04:47:09;20.70;99.90
47514;DHT22;33951;51.988;5.910;2023-06-26T04:49:35;20.60;99.90
47514;DHT22;33951;51.988;5.910;2023-06-26T04:52:01;20.60;99.90
47514;DHT22;33951;51.988;5.910;2023-06-26T04:54:26;20.50;99.90
47514;DHT22;33951;51.988;5.910;2023-06-26T04:56:53;20.40;99.90
47514;DHT22;33951;51.988;5.910;2023-06-26T04:59:19;20.40;99.90
47514;DHT22;33951;51.988;5.910;2023-06-26T05:01:45;20.50;99.90
47514;DHT22;33951;51.988;5.910;2023-06-26T05:04:14;20.50;99.90
47514;DHT22;33951;51.988;5.910;2023-06-26T05:06:41;20.50;99.90
47514;DHT22;33951;51.988;5.910;2023-06-26T05:09:07;20.50;99.90
47514;DHT22;33951;51.988;5.910;2023-06-26T05:11:32;20.50;99.90
47514;DHT22;33951;51.988;5.910;2023-06-26T05:13:58;20.40;99.90
47514;DHT22;33951;51.988;5.910;2023-06-26T05:16:24;20.40;99.90
47514;DHT22;33951;51.988;5.910;2023-06-26T05:18:52;20.40;99.90
47514;DHT22;33951;51.988;5.910;2023-06-26T05:21:19;20.40;99.90
47514;DHT22;33951;51.988;5.910;2023-06-26T05:23:45;20.30;99.90
47514;DHT22;33951;51.988;5.910;2023-06-26T05:26:12;20.50;99.90
47514;DHT22;33951;51.988;5.910;2023-06-26T05:28:38;20.50;99.90
47514;DHT22;33951;51.988;5.910;2023-06-26T05:31:04;20.50;99.90
47514;DHT22;33951;51.988;5.910;2023-06-26T05:33:31;20.50;99.90
47514;DHT22;33951;51.988;5.910;2023-06-26T05:35:59;20.50;99.90
47514;DHT22;33951;51.988;5.910;2023-06-26T05:38:25;20.60;99.90
47514;DHT22;33951;51.988;5.910;2023-06-26T05:40:51;20.60;99.90
47514;DHT22;33951;51.988;5.910;2023-06-26T05:43:17;20.60;99.90
47514;DHT22;33951;51.988;5.910;2023-06-26T05:45:49;20.60;99.90
47514;DHT22;33951;51.988;5.910;2023-06-26T05:48:17;20.70;99.90
47514;DHT22;33951;51.988;5.910;2023-06-26T05:50:43;20.80;99.90
47514;DHT22;33951;51.988;5.910;2023-06-26T05:53:09;20.90;99.90
47514;DHT22;33951;51.988;5.910;2023-06-26T05:55:35;21.00;99.90
47514;DHT22;33951;51.988;5.910;2023-06-26T05:58:02;21.00;99.90
47514;DHT22;33951;51.988;5.910;2023-06-26T06:00:29;20.90;99.90
47514;DHT22;33951;51.988;5.910;2023-06-26T06:02:54;21.00;99.90
47514;DHT22;33951;51.988;5.910;2023-06-26T06:05:21;21.10;99.90
47514;DHT22;33951;51.988;5.910;2023-06-26T06:07:47;21.00;99.90
47514;DHT22;33951;51.988;5.910;2023-06-26T06:10:13;21.00;99.90
47514;DHT22;33951;51.988;5.910;2023-06-26T06:12:38;21.00;99.90
47514;DHT22;33951;51.988;5.910;2023-06-26T06:15:05;21.10;99.90
47514;DHT22;33951;51.988;5.910;2023-06-26T06:17:31;21.20;99.90
47514;DHT22;33951;51.988;5.910;2023-06-26T06:19:57;21.20;99.90
47514;DHT22;33951;51.988;5.910;2023-06-26T06:22:22;21.10;99.90
47514;DHT22;33951;51.988;5.910;2023-06-26T06:24:52;21.10;99.90
47514;DHT22;33951;51.988;5.910;2023-06-26T06:27:17;21.00;99.90
47514;DHT22;33951;51.988;5.910;2023-06-26T06:29:43;20.90;99.90
47514;DHT22;33951;51.988;5.910;2023-06-26T06:32:09;21.00;99.90
47514;DHT22;33951;51.988;5.910;2023-06-26T06:34:34;21.10;99.90
47514;DHT22;33951;51.988;5.910;2023-06-26T06:37:00;21.20;99.90
47514;DHT22;33951;51.988;5.910;2023-06-26T06:39:44;21.20;99.90
47514;DHT22;33951;51.988;5.910;2023-06-26T06:42:24;21.20;99.90
47514;DHT22;33951;51.988;5.910;2023-06-26T06:51:29;21.40;99.90
47514;DHT22;33951;51.988;5.910;2023-06-26T07:11:42;21.30;99.90
47514;DHT22;33951;51.988;5.910;2023-06-26T07:14:24;21.30;99.90
47514;DHT22;33951;51.988;5.910;2023-06-26T07:17:11;21.30;99.90
47514;DHT22;33951;51.988;5.910;2023-06-26T07:19:49;21.40;99.90
47514;DHT22;33951;51.988;5.910;2023-06-26T07:22:15;21.50;99.90
47514;DHT22;33951;51.988;5.910;2023-06-26T07:24:46;21.60;99.90
47514;DHT22;33951;51.988;5.910;2023-06-26T07:28:19;21.90;99.90
47514;DHT22;33951;51.988;5.910;2023-06-26T07:31:11;21.80;99.90
47514;DHT22;33951;51.988;5.910;2023-06-26T07:33:52;21.70;99.90
47514;DHT22;33951;51.988;5.910;2023-06-26T07:36:23;21.60;99.90
47514;DHT22;33951;51.988;5.910;2023-06-26T07:46:06;21.70;99.90
47514;DHT22;33951;51.988;5.910;2023-06-26T08:01:13;22.30;99.90
47514;DHT22;33951;51.988;5.910;2023-06-26T08:08:17;22.10;99.90
47514;DHT22;33951;51.988;5.910;2023-06-26T08:11:15;21.80;99.90
47514;DHT22;33951;51.988;5.910;2023-06-26T08:24:31;22.00;99.90
47514;DHT22;33951;51.988;5.910;2023-06-26T08:44:55;21.90;99.90
47514;DHT22;33951;51.988;5.910;2023-06-26T08:47:43;22.00;99.90
47514;DHT22;33951;51.988;5.910;2023-06-26T08:51:19;22.20;99.90
47514;DHT22;33951;51.988;5.910;2023-06-26T09:02:45;22.60;99.90
47514;DHT22;33951;51.988;5.910;2023-06-26T09:09:21;22.40;99.90
47514;DHT22;33951;51.988;5.910;2023-06-26T09:14:37;22.50;99.90
47514;DHT22;33951;51.988;5.910;2023-06-26T09:17:03;22.70;99.90
47514;DHT22;33951;51.988;5.910;2023-06-26T09:20:05;22.50;99.90
47514;DHT22;33951;51.988;5.910;2023-06-26T09:25:31;22.40;99.90
47514;DHT22;33951;51.988;5.910;2023-06-26T09:28:10;22.60;99.90
47514;DHT22;33951;51.988;5.910;2023-06-26T09:30:49;22.60;99.90
47514;DHT22;33951;51.988;5.910;2023-06-26T09:37:32;22.60;99.90
47514;DHT22;33951;51.988;5.910;2023-06-26T09:40:10;22.40;99.90
47514;DHT22;33951;51.988;5.910;2023-06-26T09:43:24;22.50;99.90
47514;DHT22;33951;51.988;5.910;2023-06-26T09:49:51;22.70;99.90
47514;DHT22;33951;51.988;5.910;2023-06-26T09:52:40;22.70;99.90
47514;DHT22;33951;51.988;5.910;2023-06-26T10:43:42;23.90;99.90
47514;DHT22;33951;51.988;5.910;2023-06-26T11:04:08;23.30;99.70
47514;DHT22;33951;51.988;5.910;2023-06-26T11:07:17;23.00;99.40
47514;DHT22;33951;51.988;5.910;2023-06-26T11:10:25;23.00;99.70
47514;DHT22;33951;51.988;5.910;2023-06-26T11:16:11;23.30;99.90
47514;DHT22;33951;51.988;5.910;2023-06-26T11:18:57;23.90;99.90
47514;DHT22;33951;51.988;5.910;2023-06-26T11:21:34;24.00;99.30
47514;DHT22;33951;51.988;5.910;2023-06-26T11:24:35;24.00;99.50
47514;DHT22;33951;51.988;5.910;2023-06-26T11:27:06;23.90;99.20
47514;DHT22;33951;51.988;5.910;2023-06-26T12:25:43;24.30;97.90
47514;DHT22;33951;51.988;5.910;2023-06-26T12:43:10;24.10;97.40
47514;DHT22;33951;51.988;5.910;2023-06-26T13:14:49;24.00;98.40
47514;DHT22;33951;51.988;5.910;2023-06-26T13:24:52;24.80;96.90
47514;DHT22;33951;51.988;5.910;2023-06-26T13:53:33;23.30;97.00
47514;DHT22;33951;51.988;5.910;2023-06-26T14:07:28;23.60;96.00
47514;DHT22;33951;51.988;5.910;2023-06-26T14:09:54;24.10;95.70
47514;DHT22;33951;51.988;5.910;2023-06-26T14:12:20;24.60;95.50
47514;DHT22;33951;51.988;5.910;2023-06-26T14:15:24;24.80;94.30
47514;DHT22;33951;51.988;5.910;2023-06-26T14:17:46;25.10;94.50
47514;DHT22;33951;51.988;5.910;2023-06-26T14:20:16;25.50;93.10
47514;DHT22;33951;51.988;5.910;2023-06-26T14:22:43;25.40;93.40
47514;DHT22;33951;51.988;5.910;2023-06-26T14:25:16;25.40;94.00
47514;DHT22;33951;51.988;5.910;2023-06-26T14:28:39;25.50;93.30
47514;DHT22;33951;51.988;5.910;2023-06-26T14:31:09;25.60;93.40
47514;DHT22;33951;51.988;5.910;2023-06-26T15:10:21;25.10;93.30
47514;DHT22;33951;51.988;5.910;2023-06-26T15:12:47;24.70;93.60
47514;DHT22;33951;51.988;5.910;2023-06-26T15:15:36;24.70;94.50
47514;DHT22;33951;51.988;5.910;2023-06-26T15:18:01;24.60;94.80
47514;DHT22;33951;51.988;5.910;2023-06-26T15:20:34;24.70;95.10
47514;DHT22;33951;51.988;5.910;2023-06-26T15:23:01;24.80;95.30
47514;DHT22;33951;51.988;5.910;2023-06-26T15:25:45;24.50;95.60
47514;DHT22;33951;51.988;5.910;2023-06-26T15:28:21;24.40;95.30
47514;DHT22;33951;51.988;5.910;2023-06-26T15:30:49;24.60;96.00
47514;DHT22;33951;51.988;5.910;2023-06-26T15:33:18;24.60;95.30
47514;DHT22;33951;51.988;5.910;2023-06-26T15:36:00;24.70;95.40
47514;DHT22;33951;51.988;5.910;2023-06-26T15:38:54;24.90;94.80
47514;DHT22;33951;51.988;5.910;2023-06-26T15:41:23;24.70;95.10
47514;DHT22;33951;51.988;5.910;2023-06-26T15:44:02;24.40;94.80
47514;DHT22;33951;51.988;5.910;2023-06-26T15:46:28;24.30;95.20
47514;DHT22;33951;51.988;5.910;2023-06-26T15:48:54;24.20;94.80
47514;DHT22;33951;51.988;5.910;2023-06-26T15:51:22;24.10;95.00
47514;DHT22;33951;51.988;5.910;2023-06-26T15:53:48;24.20;94.70
47514;DHT22;33951;51.988;5.910;2023-06-26T15:56:16;24.30;95.10
47514;DHT22;33951;51.988;5.910;2023-06-26T15:58:44;24.40;95.10
47514;DHT22;33951;51.988;5.910;2023-06-26T16:01:14;24.30;95.30
47514;DHT22;33951;51.988;5.910;2023-06-26T16:03:59;24.30;94.90
47514;DHT22;33951;51.988;5.910;2023-06-26T16:06:25;24.60;94.90
47514;DHT22;33951;51.988;5.910;2023-06-26T16:08:51;24.90;94.50
47514;DHT22;33951;51.988;5.910;2023-06-26T16:11:20;24.80;93.80
47514;DHT22;33951;51.988;5.910;2023-06-26T16:13:48;24.80;94.00
47514;DHT22;33951;51.988;5.910;2023-06-26T16:16:19;25.30;94.40
47514;DHT22;33951;51.988;5.910;2023-06-26T16:18:50;25.70;93.90
47514;DHT22;33951;51.988;5.910;2023-06-26T16:21:16;26.00;93.70
47514;DHT22;33951;51.988;5.910;2023-06-26T16:23:41;25.90;92.70
47514;DHT22;33951;51.988;5.910;2023-06-26T16:26:20;26.00;93.00
47514;DHT22;33951;51.988;5.910;2023-06-26T16:28:49;26.00;93.80
47514;DHT22;33951;51.988;5.910;2023-06-26T16:31:21;26.00;92.90
47514;DHT22;33951;51.988;5.910;2023-06-26T16:33:50;25.90;92.80
47514;DHT22;33951;51.988;5.910;2023-06-26T16:36:21;25.60;93.40
47514;DHT22;33951;51.988;5.910;2023-06-26T16:38:46;25.40;93.00
47514;DHT22;33951;51.988;5.910;2023-06-26T16:41:15;25.60;93.10
47514;DHT22;33951;51.988;5.910;2023-06-26T16:43:49;25.60;93.10
47514;DHT22;33951;51.988;5.910;2023-06-26T16:46:18;25.70;92.90
47514;DHT22;33951;51.988;5.910;2023-06-26T16:48:44;25.20;93.00
47514;DHT22;33951;51.988;5.910;2023-06-26T16:51:12;24.60;93.50
47514;DHT22;33951;51.988;5.910;2023-06-26T16:53:44;24.30;93.90
47514;DHT22;33951;51.988;5.910;2023-06-26T16:56:15;24.10;94.30
47514;DHT22;33951;51.988;5.910;2023-06-26T16:58:49;24.40;94.40
47514;DHT22;33951;51.988;5.910;2023-06-26T17:01:25;24.50;94.50
47514;DHT22;33951;51.988;5.910;2023-06-26T17:03:51;24.70;94.40
47514;DHT22;33951;51.988;5.910;2023-06-26T17:06:17;24.90;94.40
47514;DHT22;33951;51.988;5.910;2023-06-26T17:08:45;24.70;94.70
47514;DHT22;33951;51.988;5.910;2023-06-26T17:11:19;24.60;95.10
47514;DHT22;33951;51.988;5.910;2023-06-26T17:13:47;24.60;95.20
47514;DHT22;33951;51.988;5.910;2023-06-26T17:16:30;24.60;94.30
47514;DHT22;33951;51.988;5.910;2023-06-26T17:19:00;24.50;94.90
47514;DHT22;33951;51.988;5.910;2023-06-26T17:21:26;24.70;94.70
47514;DHT22;33951;51.988;5.910;2023-06-26T17:23:58;24.80;94.80
47514;DHT22;33951;51.988;5.910;2023-06-26T17:26:27;25.40;94.80
47514;DHT22;33951;51.988;5.910;2023-06-26T17:29:07;25.40;94.30
47514;DHT22;33951;51.988;5.910;2023-06-26T17:31:46;25.30;94.20
47514;DHT22;33951;51.988;5.910;2023-06-26T17:34:14;25.80;94.40
47514;DHT22;33951;51.988;5.910;2023-06-26T17:37:04;26.20;93.40
47514;DHT22;33951;51.988;5.910;2023-06-26T17:39:35;26.40;93.70
47514;DHT22;33951;51.988;5.910;2023-06-26T17:42:09;26.30;93.10
47514;DHT22;33951;51.988;5.910;2023-06-26T17:44:35;26.30;92.90
47514;DHT22;33951;51.988;5.910;2023-06-26T17:47:01;26.10;92.40
47514;DHT22;33951;51.988;5.910;2023-06-26T17:49:27;25.30;92.90
47514;DHT22;33951;51.988;5.910;2023-06-26T17:51:52;24.80;93.40
47514;DHT22;33951;51.988;5.910;2023-06-26T17:54:20;24.80;93.90
47514;DHT22;33951;51.988;5.910;2023-06-26T17:56:49;25.00;93.40
47514;DHT22;33951;51.988;5.910;2023-06-26T17:59:15;25.20;93.00
47514;DHT22;33951;51.988;5.910;2023-06-26T18:01:41;25.20;93.30
47514;DHT22;33951;51.988;5.910;2023-06-26T18:04:09;25.60;93.00
47514;DHT22;33951;51.988;5.910;2023-06-26T18:06:35;25.60;92.70
47514;DHT22;33951;51.988;5.910;2023-06-26T18:09:01;25.40;92.60
47514;DHT22;33951;51.988;5.910;2023-06-26T18:11:30;25.30;93.00
47514;DHT22;33951;51.988;5.910;2023-06-26T18:13:59;25.40;92.60
47514;DHT22;33951;51.988;5.910;2023-06-26T18:16:28;25.10;93.20
47514;DHT22;33951;51.988;5.910;2023-06-26T18:19:02;24.90;93.40
47514;DHT22;33951;51.988;5.910;2023-06-26T18:21:28;25.00;93.60
47514;DHT22;33951;51.988;5.910;2023-06-26T18:23:54;25.30;93.40
47514;DHT22;33951;51.988;5.910;2023-06-26T18:26:24;25.50;93.10
47514;DHT22;33951;51.988;5.910;2023-06-26T18:28:49;25.40;92.80
47514;DHT22;33951;51.988;5.910;2023-06-26T18:31:20;24.60;93.10
47514;DHT22;33951;51.988;5.910;2023-06-26T18:33:48;24.30;93.70
47514;DHT22;33951;51.988;5.910;2023-06-26T18:36:16;23.80;93.70
47514;DHT22;33951;51.988;5.910;2023-06-26T18:38:42;23.20;94.10
47514;DHT22;33951;51.988;5.910;2023-06-26T18:41:12;22.90;94.80
47514;DHT22;33951;51.988;5.910;2023-06-26T18:43:40;22.80;95.00
47514;DHT22;33951;51.988;5.910;2023-06-26T18:46:08;22.70;95.30
47514;DHT22;33951;51.988;5.910;2023-06-26T18:48:35;22.50;95.60
47514;DHT22;33951;51.988;5.910;2023-06-26T18:51:13;22.50;95.70
47514;DHT22;33951;51.988;5.910;2023-06-26T18:53:48;22.30;96.10
47514;DHT22;33951;51.988;5.910;2023-06-26T18:56:19;22.20;96.40
47514;DHT22;33951;51.988;5.910;2023-06-26T18:58:44;21.80;96.90
47514;DHT22;33951;51.988;5.910;2023-06-26T19:01:18;21.80;97.00
47514;DHT22;33951;51.988;5.910;2023-06-26T19:03:46;21.40;97.30
47514;DHT22;33951;51.988;5.910;2023-06-26T19:06:34;21.40;97.40
47514;DHT22;33951;51.988;5.910;2023-06-26T19:09:09;21.40;97.30
47514;DHT22;33951;51.988;5.910;2023-06-26T19:11:40;21.10;97.80
47514;DHT22;33951;51.988;5.910;2023-06-26T19:14:08;21.10;98.40
47514;DHT22;33951;51.988;5.910;2023-06-26T19:16:34;21.10;98.20
47514;DHT22;33951;51.988;5.910;2023-06-26T19:19:03;21.10;98.20
47514;DHT22;33951;51.988;5.910;2023-06-26T19:21:31;21.10;98.40
47514;DHT22;33951;51.988;5.910;2023-06-26T19:23:58;20.80;98.50
47514;DHT22;33951;51.988;5.910;2023-06-26T19:26:34;20.70;98.90
47514;DHT22;33951;51.988;5.910;2023-06-26T19:29:01;20.60;99.10
47514;DHT22;33951;51.988;5.910;2023-06-26T19:31:32;20.50;99.40
47514;DHT22;33951;51.988;5.910;2023-06-26T19:33:58;20.60;99.50
47514;DHT22;33951;51.988;5.910;2023-06-26T19:36:26;20.60;99.50
47514;DHT22;33951;51.988;5.910;2023-06-26T19:38:55;20.60;99.70
47514;DHT22;33951;51.988;5.910;2023-06-26T19:41:30;20.30;99.80
47514;DHT22;33951;51.988;5.910;2023-06-26T19:44:04;20.30;99.90
47514;DHT22;33951;51.988;5.910;2023-06-26T19:46:30;20.10;99.90
47514;DHT22;33951;51.988;5.910;2023-06-26T19:48:56;20.10;99.90
47514;DHT22;33951;51.988;5.910;2023-06-26T19:51:25;20.30;99.90
47514;DHT22;33951;51.988;5.910;2023-06-26T19:53:51;20.20;99.90
47514;DHT22;33951;51.988;5.910;2023-06-26T19:56:38;20.10;99.90
47514;DHT22;33951;51.988;5.910;2023-06-26T19:59:04;20.10;99.90
47514;DHT22;33951;51.988;5.910;2023-06-26T20:01:30;20.00;99.90
47514;DHT22;33951;51.988;5.910;2023-06-26T20:04:10;20.20;99.90
47514;DHT22;33951;51.988;5.910;2023-06-26T20:06:36;20.20;99.90
47514;DHT22;33951;51.988;5.910;2023-06-26T20:09:10;20.20;99.90
47514;DHT22;33951;51.988;5.910;2023-06-26T20:14:33;20.10;99.90
47514;DHT22;33951;51.988;5.910;2023-06-26T20:17:04;20.10;99.90
47514;DHT22;33951;51.988;5.910;2023-06-26T20:19:30;20.20;99.90
47514;DHT22;33951;51.988;5.910;2023-06-26T20:22:06;20.20;99.90
47514;DHT22;33951;51.988;5.910;2023-06-26T20:24:31;20.20;99.90
47514;DHT22;33951;51.988;5.910;2023-06-26T20:27:04;20.10;99.90
47514;DHT22;33951;51.988;5.910;2023-06-26T20:29:30;20.10;99.90
47514;DHT22;33951;51.988;5.910;2023-06-26T20:32:00;20.00;99.90
47514;DHT22;33951;51.988;5.910;2023-06-26T20:37:49;19.80;99.90
47514;DHT22;33951;51.988;5.910;2023-06-26T20:40:23;19.70;99.90
47514;DHT22;33951;51.988;5.910;2023-06-26T20:42:50;19.80;99.90
47514;DHT22;33951;51.988;5.910;2023-06-26T20:45:22;19.90;99.90
47514;DHT22;33951;51.988;5.910;2023-06-26T20:48:23;19.70;99.90
47514;DHT22;33951;51.988;5.910;2023-06-26T20:51:03;19.50;99.90
47514;DHT22;33951;51.988;5.910;2023-06-26T20:53:38;19.40;99.90
47514;DHT22;33951;51.988;5.910;2023-06-26T20:56:16;19.30;99.90
47514;DHT22;33951;51.988;5.910;2023-06-26T20:58:44;19.40;99.90
47514;DHT22;33951;51.988;5.910;2023-06-26T21:01:12;19.20;99.90
47514;DHT22;33951;51.988;5.910;2023-06-26T21:03:41;19.20;99.90
47514;DHT22;33951;51.988;5.910;2023-06-26T21:06:37;19.20;99.90
47514;DHT22;33951;51.988;5.910;2023-06-26T21:14:42;19.10;99.90
47514;DHT22;33951;51.988;5.910;2023-06-26T21:17:38;19.10;99.90
47514;DHT22;33951;51.988;5.910;2023-06-26T21:21:15;19.10;99.90
47514;DHT22;33951;51.988;5.910;2023-06-26T21:24:16;19.20;99.90
47514;DHT22;33951;51.988;5.910;2023-06-26T21:30:32;19.20;99.90
47514;DHT22;33951;51.988;5.910;2023-06-26T21:36:47;18.70;99.90
47514;DHT22;33951;51.988;5.910;2023-06-26T21:39:56;18.60;99.90
47514;DHT22;33951;51.988;5.910;2023-06-26T21:42:42;18.50;99.90
47514;DHT22;33951;51.988;5.910;2023-06-26T21:45:17;18.60;99.90
47514;DHT22;33951;51.988;5.910;2023-06-26T21:47:55;18.50;99.90
47514;DHT22;33951;51.988;5.910;2023-06-26T21:50:49;18.60;99.90
47514;DHT22;33951;51.988;5.910;2023-06-26T21:56:20;18.70;99.90
47514;DHT22;33951;51.988;5.910;2023-06-26T22:02:31;18.50;99.90
47514;DHT22;33951;51.988;5.910;2023-06-26T22:15:22;18.50;99.90
47514;DHT22;33951;51.988;5.910;2023-06-26T22:18:23;18.40;99.90
47514;DHT22;33951;51.988;5.910;2023-06-26T22:21:51;18.50;99.90
47514;DHT22;33951;51.988;5.910;2023-06-26T22:24:28;18.60;99.90
47514;DHT22;33951;51.988;5.910;2023-06-26T23:11:58;18.60;99.90
47514;DHT22;33951;51.988;5.910;2023-06-26T23:41:32;18.00;99.90
47514;DHT22;33951;51.988;5.910;2023-06-26T23:47:04;18.00;99.90
47514;DHT22;33951;51.988;5.910;2023-06-26T23:49:45;18.00;99.90
47514;DHT22;33951;51.988;5.910;2023-06-26T23:52:16;18.20;99.90
47514;DHT22;33951;51.988;5.910;2023-06-26T23:58:06;18.20;99.90
